createdAt,value
2022-10-15T00:01:56.021Z,10.71
2022-10-15T00:06:47.697Z,10.67
2022-10-15T00:11:40.402Z,10.68
2022-10-15T00:16:33.636Z,10.68
2022-10-15T00:21:25.853Z,10.68
2022-10-15T00:26:21.929Z,10.69
2022-10-15T00:31:16.207Z,10.68
2022-10-15T00:36:14.337Z,10.71
2022-10-15T00:41:07.999Z,10.70
2022-10-15T00:45:59.652Z,10.69
2022-10-15T00:50:51.288Z,10.71
2022-10-15T00:55:43.913Z,10.74
2022-10-15T01:00:36.009Z,10.76
2022-10-15T01:05:28.721Z,10.78
2022-10-15T01:10:21.758Z,10.78
2022-10-15T01:15:28.714Z,10.81
2022-10-15T01:20:26.014Z,10.84
2022-10-15T01:25:23.743Z,10.87
2022-10-15T01:30:50.917Z,10.91
2022-10-15T01:35:50.402Z,10.92
2022-10-15T01:40:51.552Z,10.95
2022-10-15T01:45:52.975Z,10.95
2022-10-15T01:50:48.687Z,11.01
2022-10-15T01:55:44.159Z,11.03
2022-10-15T02:00:35.860Z,11.05
2022-10-15T02:05:35.570Z,11.09
2022-10-15T02:10:48.668Z,11.13
2022-10-15T02:16:02.496Z,11.15
2022-10-15T02:21:03.384Z,11.21
2022-10-15T02:25:56.693Z,11.20
2022-10-15T02:30:52.930Z,11.22
2022-10-15T02:35:46.780Z,11.25
2022-10-15T02:40:40.696Z,11.22
2022-10-15T02:45:32.454Z,11.23
2022-10-15T02:50:24.226Z,11.22
2022-10-15T02:55:15.994Z,11.23
2022-10-15T03:00:08.488Z,11.25
2022-10-15T03:05:00.212Z,11.26
2022-10-15T03:09:51.895Z,11.26
2022-10-15T03:14:43.531Z,11.24
2022-10-15T03:19:36.147Z,11.25
2022-10-15T03:24:27.901Z,11.23
2022-10-15T03:29:19.608Z,11.24
2022-10-15T03:34:11.271Z,11.25
2022-10-15T03:39:03.081Z,11.25
2022-10-15T03:43:54.715Z,11.26
2022-10-15T03:48:50.244Z,11.25
2022-10-15T03:53:41.848Z,11.24
2022-10-15T03:58:33.646Z,11.24
2022-10-15T04:03:25.359Z,11.25
2022-10-15T04:08:17.123Z,11.24
2022-10-15T04:13:08.745Z,11.24
2022-10-15T04:18:00.333Z,11.20
2022-10-15T04:22:52.049Z,11.17
2022-10-15T04:27:43.751Z,11.14
2022-10-15T04:32:35.623Z,11.12
2022-10-15T04:37:27.284Z,11.09
2022-10-15T04:42:19.010Z,11.10
2022-10-15T04:47:11.031Z,11.08
2022-10-15T04:52:02.762Z,11.06
2022-10-15T04:56:54.568Z,10.98
2022-10-15T05:01:46.215Z,10.94
2022-10-15T05:06:38.193Z,10.89
2022-10-15T05:11:29.982Z,10.83
2022-10-15T05:16:25.059Z,10.77
2022-10-15T05:21:17.723Z,10.72
2022-10-15T05:26:13.342Z,10.68
2022-10-15T05:31:07.693Z,10.60
2022-10-15T05:36:28.364Z,10.54
2022-10-15T05:41:20.638Z,10.47
2022-10-15T05:46:12.237Z,10.44
2022-10-15T05:51:09.041Z,10.36
2022-10-15T05:56:00.729Z,10.30
2022-10-15T06:00:57.309Z,10.26
2022-10-15T06:05:49.188Z,10.23
2022-10-15T06:10:40.900Z,10.23
2022-10-15T06:15:33.582Z,10.25
2022-10-15T06:20:25.432Z,10.21
2022-10-15T06:25:17.147Z,10.21
2022-10-15T06:30:09.383Z,10.20
2022-10-15T06:35:01.022Z,10.21
2022-10-15T06:39:52.724Z,10.20
2022-10-15T06:44:44.320Z,10.19
2022-10-15T06:49:36.148Z,10.16
2022-10-15T06:54:27.868Z,10.17
2022-10-15T06:59:19.806Z,10.16
2022-10-15T07:04:11.582Z,10.18
2022-10-15T07:09:04.350Z,10.20
2022-10-15T07:13:58.100Z,10.16
2022-10-15T07:18:49.998Z,10.14
2022-10-15T07:23:41.664Z,10.10
2022-10-15T07:28:33.438Z,10.11
2022-10-15T07:33:25.183Z,10.04
2022-10-15T07:38:18.082Z,10.04
2022-10-15T07:43:09.775Z,10.07
2022-10-15T07:48:01.680Z,10.12
2022-10-15T07:52:53.453Z,10.29
2022-10-15T07:57:45.184Z,10.62
2022-10-15T08:02:36.914Z,10.62
2022-10-15T08:07:28.633Z,10.73
2022-10-15T08:12:20.547Z,11.10
2022-10-15T08:17:12.315Z,11.80
2022-10-15T08:22:04.015Z,12.14
2022-10-15T08:26:57.771Z,12.23
2022-10-15T08:31:49.567Z,12.29
2022-10-15T08:36:41.359Z,12.18
2022-10-15T08:41:40.496Z,12.35
2022-10-15T08:46:39.652Z,12.85
2022-10-15T08:51:46.617Z,13.41
2022-10-15T08:56:43.280Z,13.47
2022-10-15T09:01:43.659Z,13.61
2022-10-15T09:06:38.526Z,13.83
2022-10-15T09:11:42.286Z,13.64
2022-10-15T09:16:38.470Z,13.58
2022-10-15T09:21:32.289Z,13.81
2022-10-15T09:26:39.267Z,14.26
2022-10-15T09:31:40.542Z,14.66
2022-10-15T09:36:46.501Z,15.09
2022-10-15T09:42:16.426Z,15.21
2022-10-15T09:47:24.780Z,15.69
2022-10-15T09:52:38.357Z,15.72
2022-10-15T09:57:33.337Z,15.56
2022-10-15T10:02:26.746Z,15.44
2022-10-15T10:07:37.593Z,15.66
2022-10-15T10:12:34.106Z,16.00
2022-10-15T10:17:30.464Z,16.17
2022-10-15T10:22:22.351Z,16.52
2022-10-15T10:27:28.340Z,16.47
2022-10-15T10:32:23.689Z,16.42
2022-10-15T10:37:15.674Z,16.54
2022-10-15T10:42:24.904Z,16.36
2022-10-15T10:47:16.733Z,15.98
2022-10-15T10:52:20.843Z,15.63
2022-10-15T10:57:15.842Z,15.37
2022-10-15T11:02:13.266Z,15.18
2022-10-15T11:07:09.917Z,15.10
2022-10-15T11:12:10.656Z,15.06
2022-10-15T11:17:20.019Z,15.01
2022-10-15T11:22:39.603Z,15.27
2022-10-15T11:27:59.213Z,15.50
2022-10-15T11:33:12.523Z,16.05
2022-10-15T11:38:29.664Z,16.14
2022-10-15T11:43:40.053Z,16.00
2022-10-15T11:48:40.327Z,15.98
2022-10-15T11:53:31.843Z,15.85
2022-10-15T11:58:54.938Z,15.75
2022-10-15T12:03:58.681Z,15.83
2022-10-15T12:08:52.462Z,16.11
2022-10-15T12:13:56.299Z,15.99
2022-10-15T12:19:06.742Z,15.88
2022-10-15T12:23:58.518Z,15.85
2022-10-15T12:28:53.355Z,15.72
2022-10-15T12:33:50.232Z,15.50
2022-10-15T12:38:52.176Z,15.37
2022-10-15T12:43:52.919Z,15.29
2022-10-15T12:48:46.832Z,15.15
2022-10-15T12:53:42.972Z,15.15
2022-10-15T12:58:37.510Z,15.11
2022-10-15T13:03:38.089Z,15.31
2022-10-15T13:08:31.497Z,15.49
2022-10-15T13:13:27.405Z,15.45
2022-10-15T13:18:22.591Z,15.27
2022-10-15T13:23:29.679Z,15.22
2022-10-15T13:28:34.604Z,15.26
2022-10-15T13:33:27.109Z,15.29
2022-10-15T13:38:25.363Z,15.26
2022-10-15T13:43:22.743Z,15.26
2022-10-15T13:48:22.146Z,15.27
2022-10-15T13:53:27.187Z,15.27
2022-10-15T13:58:26.649Z,15.35
2022-10-15T14:03:22.634Z,15.41
2022-10-15T14:08:19.422Z,15.43
2022-10-15T14:13:11.606Z,15.49
2022-10-15T14:18:03.670Z,15.48
2022-10-15T14:22:55.614Z,15.46
2022-10-15T14:27:47.362Z,15.45
2022-10-15T14:32:52.118Z,15.37
2022-10-15T14:37:43.845Z,15.34
2022-10-15T14:43:01.650Z,15.33
2022-10-15T14:47:58.739Z,15.25
2022-10-15T14:52:53.080Z,15.16
2022-10-15T14:57:45.984Z,15.14
2022-10-15T15:02:37.803Z,15.24
2022-10-15T15:07:29.540Z,15.26
2022-10-15T15:12:27.879Z,15.17
2022-10-15T15:17:23.061Z,15.10
2022-10-15T15:22:18.861Z,15.01
2022-10-15T15:27:23.262Z,14.93
2022-10-15T15:32:15.953Z,14.71
2022-10-15T15:37:36.717Z,14.46
2022-10-15T15:42:28.603Z,14.42
2022-10-15T15:47:20.476Z,14.40
2022-10-15T15:52:18.873Z,14.25
2022-10-15T15:57:11.170Z,14.13
2022-10-15T16:02:02.863Z,14.08
2022-10-15T16:06:54.795Z,13.93
2022-10-15T16:11:46.422Z,13.80
2022-10-15T16:16:38.313Z,13.66
2022-10-15T16:21:30.063Z,13.61
2022-10-15T16:26:22.070Z,13.57
2022-10-15T16:31:15.233Z,13.53
2022-10-15T16:36:07.074Z,13.51
2022-10-15T16:40:58.890Z,13.35
2022-10-15T16:46:00.344Z,13.13
2022-10-15T16:51:10.773Z,12.96
2022-10-15T16:56:05.056Z,12.82
2022-10-15T17:01:00.900Z,12.67
2022-10-15T17:06:00.405Z,12.48
2022-10-15T17:10:52.229Z,12.41
2022-10-15T17:15:43.868Z,12.30
2022-10-15T17:20:43.716Z,12.24
2022-10-15T17:25:36.281Z,12.16
2022-10-15T17:30:28.005Z,12.11
2022-10-15T17:35:21.117Z,12.03
2022-10-15T17:40:13.654Z,11.92
2022-10-15T17:45:05.684Z,11.84
2022-10-15T17:49:57.499Z,11.78
2022-10-15T17:54:49.254Z,11.73
2022-10-15T17:59:40.885Z,11.68
2022-10-15T18:04:32.527Z,11.67
2022-10-15T18:09:28.304Z,11.62
2022-10-15T18:14:21.971Z,11.58
2022-10-15T18:19:14.237Z,11.53
2022-10-15T18:24:06.018Z,11.50
2022-10-15T18:30:13.608Z,11.53
2022-10-15T18:36:15.974Z,11.51
2022-10-15T18:41:55.582Z,11.46
2022-10-15T18:46:47.536Z,11.45
2022-10-15T18:56:45.518Z,11.33
2022-10-15T19:21:31.273Z,10.98
2022-10-15T19:26:23.036Z,10.95
2022-10-15T19:31:36.463Z,10.94
2022-10-15T19:36:34.264Z,10.97
2022-10-15T19:41:25.859Z,10.92
2022-10-15T19:46:17.664Z,10.92
2022-10-15T19:51:09.266Z,10.87
2022-10-15T19:56:03.848Z,10.82
2022-10-15T20:00:55.436Z,10.70
2022-10-15T20:05:47.436Z,10.63
2022-10-15T20:10:44.584Z,10.55
2022-10-15T20:15:40.968Z,10.47
2022-10-15T20:20:36.317Z,10.39
2022-10-15T20:25:27.893Z,10.38
2022-10-15T20:30:21.324Z,10.35
2022-10-15T20:35:13.326Z,10.26
2022-10-15T20:40:05.622Z,10.23
2022-10-15T20:44:57.299Z,10.20
2022-10-15T20:49:52.622Z,10.15
2022-10-15T20:54:44.588Z,10.02
2022-10-15T20:59:36.758Z,10.00
2022-10-15T21:04:28.377Z,9.93
2022-10-15T21:09:20.115Z,9.91
2022-10-15T21:14:13.626Z,9.88
2022-10-15T21:19:05.346Z,9.83
2022-10-15T21:23:58.236Z,9.83
2022-10-15T21:28:58.347Z,9.85
2022-10-15T21:33:50.281Z,9.84
2022-10-15T21:38:42.571Z,9.86
2022-10-15T21:43:34.943Z,9.87
2022-10-15T21:48:27.398Z,9.84
2022-10-15T21:53:19.296Z,9.83
2022-10-15T21:58:10.981Z,9.82
2022-10-15T22:03:02.613Z,9.86
2022-10-15T22:07:54.491Z,9.88
2022-10-15T22:12:52.181Z,9.88
2022-10-15T22:17:43.943Z,9.86
2022-10-15T22:22:35.546Z,9.83
2022-10-15T22:27:27.431Z,9.82
2022-10-15T22:32:19.145Z,9.83
2022-10-15T22:37:10.746Z,9.83
2022-10-15T22:42:02.408Z,9.81
2022-10-15T22:46:54.003Z,9.80
2022-10-15T22:51:45.848Z,9.78
2022-10-15T22:56:38.100Z,9.76
2022-10-15T23:01:32.052Z,9.72
2022-10-15T23:06:25.865Z,9.73
2022-10-15T23:11:21.526Z,9.75
2022-10-15T23:16:19.628Z,9.73
2022-10-15T23:21:18.610Z,9.72
2022-10-15T23:26:15.579Z,9.70
2022-10-15T23:31:07.440Z,9.71
2022-10-15T23:36:02.472Z,9.69
2022-10-15T23:41:08.665Z,9.64
2022-10-15T23:46:00.829Z,9.61
2022-10-15T23:50:52.692Z,9.59
2022-10-15T23:55:44.741Z,9.58
